createdAt,value
2016-11-12T00:00:07.860Z,1008.56
2016-11-12T00:01:07.875Z,1008.6
2016-11-12T00:02:07.880Z,1008.62
2016-11-12T00:03:07.898Z,1008.58
2016-11-12T00:04:07.907Z,1008.56
2016-11-12T00:05:07.915Z,1008.57
2016-11-12T00:06:07.925Z,1008.57
2016-11-12T00:07:07.938Z,1008.56
2016-11-12T00:08:07.950Z,1008.57
2016-11-12T00:09:07.957Z,1008.52
2016-11-12T00:10:07.969Z,1008.59
2016-11-12T00:11:07.979Z,1008.55
2016-11-12T00:12:07.987Z,1008.53
2016-11-12T00:13:08.003Z,1008.55
2016-11-12T00:14:08.012Z,1008.52
2016-11-12T00:15:08.025Z,1008.52
2016-11-12T00:16:08.031Z,1008.55
2016-11-12T00:17:08.044Z,1008.52
2016-11-12T00:18:08.054Z,1008.49
2016-11-12T00:19:08.065Z,1008.5
2016-11-12T00:20:08.072Z,1008.48
2016-11-12T00:21:08.082Z,1008.53
2016-11-12T00:22:08.100Z,1008.45
2016-11-12T00:23:08.104Z,1008.47
2016-11-12T00:24:08.119Z,1008.44
2016-11-12T00:25:08.125Z,1008.46
2016-11-12T00:26:08.143Z,1008.43
2016-11-12T00:27:08.148Z,1008.4
2016-11-12T00:28:08.160Z,1008.41
2016-11-12T00:29:08.169Z,1008.41
2016-11-12T00:30:08.179Z,1008.41
2016-11-12T00:31:08.189Z,1008.44
2016-11-12T00:32:08.201Z,1008.37
2016-11-12T00:33:08.212Z,1008.4
2016-11-12T00:34:08.223Z,1008.41
2016-11-12T00:35:08.231Z,1008.44
2016-11-12T00:36:08.243Z,1008.42
2016-11-12T00:37:08.251Z,1008.42
2016-11-12T00:38:08.263Z,1008.45
2016-11-12T00:39:08.275Z,1008.4
2016-11-12T00:40:08.284Z,1008.43
2016-11-12T00:41:08.291Z,1008.42
2016-11-12T00:42:08.305Z,1008.41
2016-11-12T00:43:08.316Z,1008.42
2016-11-12T00:44:08.325Z,1008.46
2016-11-12T00:45:08.338Z,1008.44
2016-11-12T00:46:08.344Z,1008.46
2016-11-12T00:47:08.359Z,1008.47
2016-11-12T00:48:08.367Z,1008.42
2016-11-12T00:49:08.375Z,1008.46
2016-11-12T00:50:08.387Z,1008.46
2016-11-12T00:51:08.395Z,1008.45
2016-11-12T00:52:08.406Z,1008.44
2016-11-12T00:53:08.416Z,1008.42
2016-11-12T00:54:08.425Z,1008.42
2016-11-12T00:55:08.441Z,1008.39
2016-11-12T00:56:08.447Z,1008.43
2016-11-12T00:57:08.456Z,1008.43
2016-11-12T00:58:08.465Z,1008.45
2016-11-12T00:59:08.481Z,1008.5
2016-11-12T01:00:08.489Z,1008.55
2016-11-12T01:01:08.499Z,1008.53
2016-11-12T01:02:08.510Z,1008.48
2016-11-12T01:03:08.523Z,1008.52
2016-11-12T01:04:08.532Z,1008.52
2016-11-12T01:05:08.541Z,1008.52
2016-11-12T01:06:08.554Z,1008.6
2016-11-12T01:07:08.559Z,1008.55
2016-11-12T01:08:08.572Z,1008.59
2016-11-12T01:09:08.586Z,1008.57
2016-11-12T01:10:08.593Z,1008.58
2016-11-12T01:11:08.606Z,1008.62
2016-11-12T01:12:08.617Z,1008.58
2016-11-12T01:13:08.625Z,1008.61
2016-11-12T01:14:08.633Z,1008.59
2016-11-12T01:15:08.646Z,1008.67
2016-11-12T01:16:08.655Z,1008.62
2016-11-12T01:17:08.665Z,1008.66
2016-11-12T01:18:08.674Z,1008.7
2016-11-12T01:19:08.679Z,1008.7
2016-11-12T01:20:08.695Z,1008.67
2016-11-12T01:21:08.700Z,1008.73
2016-11-12T01:22:08.713Z,1008.77
2016-11-12T01:23:08.725Z,1008.73
2016-11-12T01:24:08.735Z,1008.77
2016-11-12T01:25:08.742Z,1008.8
2016-11-12T01:26:08.751Z,1008.79
2016-11-12T01:27:08.765Z,1008.79
2016-11-12T01:28:08.774Z,1008.81
2016-11-12T01:29:08.783Z,1008.79
2016-11-12T01:30:08.793Z,1008.82
2016-11-12T01:31:08.804Z,1008.84
2016-11-12T01:32:08.813Z,1008.82
2016-11-12T01:33:08.824Z,1008.83
2016-11-12T01:34:08.833Z,1008.8
2016-11-12T01:35:08.845Z,1008.79
2016-11-12T01:36:08.857Z,1008.78
2016-11-12T01:37:08.865Z,1008.78
2016-11-12T01:38:08.875Z,1008.78
2016-11-12T01:39:08.887Z,1008.77
2016-11-12T01:40:08.894Z,1008.77
2016-11-12T01:41:08.903Z,1008.76
2016-11-12T01:42:08.917Z,1008.78
2016-11-12T01:43:08.926Z,1008.8
2016-11-12T01:44:08.935Z,1008.79
2016-11-12T01:45:08.948Z,1008.77
2016-11-12T01:46:08.957Z,1008.75
2016-11-12T01:47:08.971Z,1008.75
2016-11-12T01:48:08.976Z,1008.74
2016-11-12T01:49:08.984Z,1008.73
2016-11-12T01:50:09.000Z,1008.75
2016-11-12T01:51:09.010Z,1008.72
2016-11-12T01:52:09.020Z,1008.71
2016-11-12T01:53:09.029Z,1008.68
2016-11-12T01:54:09.038Z,1008.62
2016-11-12T01:55:09.047Z,1008.58
2016-11-12T01:56:09.058Z,1008.58
2016-11-12T01:57:09.068Z,1008.56
2016-11-12T01:58:09.078Z,1008.57
2016-11-12T01:59:09.087Z,1008.57
2016-11-12T02:00:09.100Z,1008.59
2016-11-12T02:01:09.108Z,1008.59
2016-11-12T02:02:09.119Z,1008.67
2016-11-12T02:03:09.130Z,1008.69
2016-11-12T02:04:09.140Z,1008.74
2016-11-12T02:05:09.147Z,1008.71
2016-11-12T02:06:09.156Z,1008.7
2016-11-12T02:07:09.167Z,1008.69
2016-11-12T02:08:09.195Z,1008.69
2016-11-12T02:09:09.188Z,1008.68
2016-11-12T02:10:09.197Z,1008.69
2016-11-12T02:11:09.207Z,1008.68
2016-11-12T02:12:09.219Z,1008.67
2016-11-12T02:13:09.228Z,1008.67
2016-11-12T02:14:09.239Z,1008.64
2016-11-12T02:15:09.251Z,1008.61
2016-11-12T02:16:09.260Z,1008.62
2016-11-12T02:17:09.271Z,1008.59
2016-11-12T02:18:09.279Z,1008.59
2016-11-12T02:19:09.291Z,1008.54
2016-11-12T02:20:09.299Z,1008.53
2016-11-12T02:21:09.308Z,1008.55
2016-11-12T02:22:09.319Z,1008.53
2016-11-12T02:23:09.329Z,1008.51
2016-11-12T02:24:09.338Z,1008.49
2016-11-12T02:25:09.350Z,1008.52
2016-11-12T02:26:09.358Z,1008.54
2016-11-12T02:27:09.368Z,1008.5
2016-11-12T02:28:09.377Z,1008.54
2016-11-12T02:29:09.386Z,1008.56
2016-11-12T02:30:09.398Z,1008.52
2016-11-12T02:31:09.409Z,1008.54
2016-11-12T02:32:09.416Z,1008.52
2016-11-12T02:33:09.427Z,1008.56
2016-11-12T02:34:09.438Z,1008.54
2016-11-12T02:35:09.449Z,1008.58
2016-11-12T02:36:09.456Z,1008.54
2016-11-12T02:37:09.467Z,1008.6
2016-11-12T02:38:09.477Z,1008.6
2016-11-12T02:39:09.489Z,1008.53
2016-11-12T02:40:09.497Z,1008.58
2016-11-12T02:41:09.509Z,1008.55
2016-11-12T02:42:09.519Z,1008.58
2016-11-12T02:43:09.528Z,1008.56
2016-11-12T02:44:09.539Z,1008.57
2016-11-12T02:45:09.547Z,1008.58
2016-11-12T02:46:09.554Z,1008.58
2016-11-12T02:47:09.569Z,1008.59
2016-11-12T02:48:09.579Z,1008.59
2016-11-12T02:49:09.585Z,1008.6
2016-11-12T02:50:09.594Z,1008.58
2016-11-12T02:51:09.605Z,1008.63
2016-11-12T02:52:09.618Z,1008.61
2016-11-12T02:53:09.625Z,1008.64
2016-11-12T02:54:09.635Z,1008.63
2016-11-12T02:55:09.647Z,1008.62
2016-11-12T02:56:09.654Z,1008.62
2016-11-12T02:57:09.665Z,1008.59
2016-11-12T02:58:09.676Z,1008.58
2016-11-12T02:59:09.683Z,1008.54
2016-11-12T03:00:09.695Z,1008.5
2016-11-12T03:01:09.708Z,1008.52
2016-11-12T03:02:09.715Z,1008.5
2016-11-12T03:03:09.728Z,1008.5
2016-11-12T03:04:09.734Z,1008.45
2016-11-12T03:05:09.745Z,1008.48
2016-11-12T03:06:09.759Z,1008.44
2016-11-12T03:07:09.768Z,1008.46
2016-11-12T03:08:09.773Z,1008.48
2016-11-12T03:09:09.784Z,1008.45
2016-11-12T03:10:09.799Z,1008.47
2016-11-12T03:11:09.807Z,1008.44
2016-11-12T03:12:09.817Z,1008.47
2016-11-12T03:13:09.823Z,1008.4
2016-11-12T03:14:09.839Z,1008.46
2016-11-12T03:15:09.847Z,1008.46
2016-11-12T03:16:09.854Z,1008.47
2016-11-12T03:17:09.866Z,1008.48
2016-11-12T03:18:09.879Z,1008.5
2016-11-12T03:19:09.885Z,1008.53
2016-11-12T03:20:09.895Z,1008.5
2016-11-12T03:21:09.906Z,1008.54
2016-11-12T03:22:09.918Z,1008.56
2016-11-12T03:23:09.924Z,1008.56
2016-11-12T03:24:09.935Z,1008.55
2016-11-12T03:25:09.946Z,1008.59
2016-11-12T03:26:09.958Z,1008.54
2016-11-12T03:27:09.969Z,1008.58
2016-11-12T03:28:09.978Z,1008.52
2016-11-12T03:29:09.985Z,1008.54
2016-11-12T03:30:09.996Z,1008.56
2016-11-12T03:31:10.009Z,1008.56
2016-11-12T03:32:10.018Z,1008.51
2016-11-12T03:33:10.027Z,1008.58
2016-11-12T03:34:10.036Z,1008.54
2016-11-12T03:35:10.047Z,1008.54
2016-11-12T03:36:10.059Z,1008.55
2016-11-12T03:37:10.068Z,1008.53
2016-11-12T03:38:10.077Z,1008.56
2016-11-12T03:39:10.088Z,1008.53
2016-11-12T03:40:10.095Z,1008.49
2016-11-12T03:41:10.105Z,1008.44
2016-11-12T03:42:10.113Z,1008.46
2016-11-12T03:43:10.130Z,1008.43
2016-11-12T03:44:10.138Z,1008.42
2016-11-12T03:45:10.146Z,1008.44
2016-11-12T03:46:10.154Z,1008.43
2016-11-12T03:47:10.168Z,1008.42
2016-11-12T03:48:10.177Z,1008.43
2016-11-12T03:49:10.188Z,1008.45
2016-11-12T03:50:10.199Z,1008.4
2016-11-12T03:51:10.209Z,1008.46
2016-11-12T03:52:10.218Z,1008.45
2016-11-12T03:53:10.226Z,1008.48
2016-11-12T03:54:10.240Z,1008.48
2016-11-12T03:55:10.251Z,1008.49
2016-11-12T03:56:10.259Z,1008.52
2016-11-12T03:57:10.267Z,1008.51
2016-11-12T03:58:10.279Z,1008.47
2016-11-12T03:59:10.290Z,1008.5
2016-11-12T04:01:10.309Z,1008.46
2016-11-12T04:02:10.315Z,1008.43
2016-11-12T04:03:10.327Z,1008.42
2016-11-12T04:04:10.337Z,1008.41
2016-11-12T04:05:10.348Z,1008.4
2016-11-12T04:06:10.361Z,1008.38
2016-11-12T04:07:10.369Z,1008.41
2016-11-12T04:08:10.380Z,1008.4
2016-11-12T04:09:10.389Z,1008.37
2016-11-12T04:10:10.397Z,1008.38
2016-11-12T04:11:10.410Z,1008.39
2016-11-12T04:12:10.417Z,1008.32
2016-11-12T04:13:10.429Z,1008.29
2016-11-12T04:14:10.436Z,1008.29
2016-11-12T04:15:10.449Z,1008.29
2016-11-12T04:16:10.458Z,1008.29
2016-11-12T04:17:10.466Z,1008.24
2016-11-12T04:18:10.481Z,1008.31
2016-11-12T04:19:10.490Z,1008.3
2016-11-12T04:20:10.497Z,1008.23
2016-11-12T04:21:10.509Z,1008.25
2016-11-12T04:22:10.519Z,1008.22
2016-11-12T04:23:10.530Z,1008.23
2016-11-12T04:24:10.541Z,1008.2
2016-11-12T04:25:10.551Z,1008.23
2016-11-12T04:26:10.557Z,1008.25
2016-11-12T04:27:10.570Z,1008.24
2016-11-12T04:28:10.579Z,1008.25
2016-11-12T04:29:10.587Z,1008.25
2016-11-12T04:30:10.603Z,1008.26
2016-11-12T04:31:10.611Z,1008.3
2016-11-12T04:32:10.625Z,1008.3
2016-11-12T04:33:10.632Z,1008.34
2016-11-12T04:34:10.642Z,1008.31
2016-11-12T04:35:10.651Z,1008.29
2016-11-12T04:36:10.657Z,1008.29
2016-11-12T04:37:10.672Z,1008.26
2016-11-12T04:38:10.683Z,1008.28
2016-11-12T04:39:10.688Z,1008.29
2016-11-12T04:40:10.705Z,1008.29
2016-11-12T04:41:10.713Z,1008.28
2016-11-12T04:42:10.722Z,1008.31
2016-11-12T04:43:10.731Z,1008.3
2016-11-12T04:44:10.743Z,1008.29
2016-11-12T04:45:10.750Z,1008.32
2016-11-12T04:46:10.761Z,1008.35
2016-11-12T04:47:10.773Z,1008.32
2016-11-12T04:48:10.781Z,1008.33
2016-11-12T04:49:10.790Z,1008.31
2016-11-12T04:50:10.802Z,1008.34
2016-11-12T04:51:10.807Z,1008.37
2016-11-12T04:52:10.823Z,1008.35
2016-11-12T04:53:10.832Z,1008.39
2016-11-12T04:54:10.846Z,1008.36
2016-11-12T04:55:10.854Z,1008.38
2016-11-12T04:56:10.862Z,1008.38
2016-11-12T04:57:10.877Z,1008.36
2016-11-12T04:58:10.886Z,1008.41
2016-11-12T04:59:10.896Z,1008.46
2016-11-12T05:00:10.903Z,1008.47
2016-11-12T05:01:10.916Z,1008.43
2016-11-12T05:02:10.927Z,1008.45
2016-11-12T05:03:10.936Z,1008.47
2016-11-12T05:04:10.945Z,1008.47
2016-11-12T05:05:10.954Z,1008.45
2016-11-12T05:06:10.964Z,1008.48
2016-11-12T05:07:10.973Z,1008.49
2016-11-12T05:08:10.985Z,1008.54
2016-11-12T05:09:10.997Z,1008.49
2016-11-12T05:10:11.005Z,1008.57
2016-11-12T05:11:11.016Z,1008.51
2016-11-12T05:12:11.026Z,1008.52
2016-11-12T05:13:11.034Z,1008.54
2016-11-12T05:14:11.048Z,1008.55
2016-11-12T05:15:11.055Z,1008.54
2016-11-12T05:16:11.067Z,1008.56
2016-11-12T05:17:11.072Z,1008.57
2016-11-12T05:18:11.085Z,1008.54
2016-11-12T05:19:11.096Z,1008.59
2016-11-12T05:20:11.103Z,1008.57
2016-11-12T05:21:11.115Z,1008.56
2016-11-12T05:22:11.127Z,1008.59
2016-11-12T05:23:11.137Z,1008.57
2016-11-12T05:24:11.146Z,1008.52
2016-11-12T05:25:11.156Z,1008.56
2016-11-12T05:26:11.169Z,1008.55
2016-11-12T05:27:11.177Z,1008.54
2016-11-12T05:28:11.187Z,1008.56
2016-11-12T05:29:11.196Z,1008.54
2016-11-12T05:30:11.209Z,1008.56
2016-11-12T05:31:11.211Z,1008.56
2016-11-12T05:32:11.226Z,1008.56
2016-11-12T05:33:11.234Z,1008.58
2016-11-12T05:34:11.244Z,1008.59
2016-11-12T05:35:11.254Z,1008.63
2016-11-12T05:36:11.263Z,1008.6
2016-11-12T05:37:11.277Z,1008.61
2016-11-12T05:38:11.284Z,1008.63
2016-11-12T05:39:11.295Z,1008.62
2016-11-12T05:40:11.302Z,1008.67
2016-11-12T05:41:11.317Z,1008.61
2016-11-12T05:42:11.324Z,1008.67
2016-11-12T05:43:11.334Z,1008.67
2016-11-12T05:44:11.341Z,1008.66
2016-11-12T05:45:11.353Z,1008.68
2016-11-12T05:46:11.361Z,1008.69
2016-11-12T05:47:11.376Z,1008.67
2016-11-12T05:48:11.382Z,1008.64
2016-11-12T05:49:11.393Z,1008.68
2016-11-12T05:50:11.402Z,1008.68
2016-11-12T05:51:11.412Z,1008.64
2016-11-12T05:52:11.425Z,1008.65
2016-11-12T05:53:11.432Z,1008.69
2016-11-12T05:54:11.444Z,1008.64
2016-11-12T05:55:11.451Z,1008.69
2016-11-12T05:56:11.465Z,1008.65
2016-11-12T05:58:11.483Z,1008.71
2016-11-12T05:59:11.494Z,1008.72
2016-11-12T06:00:11.500Z,1008.71
2016-11-12T06:01:11.509Z,1008.73
2016-11-12T06:02:11.521Z,1008.73
2016-11-12T06:03:11.529Z,1008.74
2016-11-12T06:04:11.542Z,1008.77
2016-11-12T06:05:11.547Z,1008.76
2016-11-12T06:06:11.556Z,1008.77
2016-11-12T06:07:11.568Z,1008.81
2016-11-12T06:08:11.577Z,1008.82
2016-11-12T06:09:11.589Z,1008.84
2016-11-12T06:10:11.598Z,1008.8
2016-11-12T06:11:11.606Z,1008.84
2016-11-12T06:13:11.629Z,1008.81
2016-11-12T06:14:11.639Z,1008.83
2016-11-12T06:15:11.642Z,1008.81
2016-11-12T06:16:11.657Z,1008.8
2016-11-12T06:17:11.666Z,1008.81
2016-11-12T06:18:11.675Z,1008.8
2016-11-12T06:19:11.683Z,1008.77
2016-11-12T06:20:11.691Z,1008.77
2016-11-12T06:21:11.699Z,1008.78
2016-11-12T06:22:11.713Z,1008.84
2016-11-12T06:23:11.724Z,1008.81
2016-11-12T06:24:11.730Z,1008.81
2016-11-12T06:25:11.741Z,1008.82
2016-11-12T06:26:11.751Z,1008.82
2016-11-12T06:27:11.761Z,1008.82
2016-11-12T06:28:11.770Z,1008.84
2016-11-12T06:29:11.779Z,1008.83
2016-11-12T06:30:11.789Z,1008.81
2016-11-12T06:31:11.800Z,1008.84
2016-11-12T06:32:11.810Z,1008.83
2016-11-12T06:33:11.849Z,1008.87
2016-11-12T06:34:11.829Z,1008.83
2016-11-12T06:35:11.838Z,1008.88
2016-11-12T06:36:11.845Z,1008.89
2016-11-12T06:37:11.856Z,1008.86
2016-11-12T06:38:11.864Z,1008.89
2016-11-12T06:39:11.875Z,1008.86
2016-11-12T06:40:11.879Z,1008.88
2016-11-12T06:41:11.893Z,1008.91
2016-11-12T06:42:11.903Z,1008.9
2016-11-12T06:43:11.910Z,1008.89
2016-11-12T06:44:11.921Z,1008.88
2016-11-12T06:45:11.928Z,1008.92
2016-11-12T06:46:11.939Z,1008.92
2016-11-12T06:47:11.947Z,1008.95
2016-11-12T06:48:11.956Z,1008.94
2016-11-12T06:49:11.969Z,1008.94
2016-11-12T06:50:11.977Z,1008.94
2016-11-12T06:51:11.990Z,1008.95
2016-11-12T06:52:11.996Z,1008.89
2016-11-12T06:53:12.007Z,1008.95
2016-11-12T06:54:12.016Z,1008.91
2016-11-12T06:55:12.026Z,1008.87
2016-11-12T06:56:12.034Z,1008.84
2016-11-12T06:57:12.042Z,1008.88
2016-11-12T06:58:12.054Z,1008.85
2016-11-12T06:59:12.061Z,1008.81
2016-11-12T07:00:12.072Z,1008.83
2016-11-12T07:01:12.082Z,1008.83
2016-11-12T07:02:12.093Z,1008.86
2016-11-12T07:03:12.101Z,1008.84
2016-11-12T07:04:12.112Z,1008.88
2016-11-12T07:05:12.121Z,1008.85
2016-11-12T07:06:12.127Z,1008.9
2016-11-12T07:07:12.141Z,1008.9
2016-11-12T07:08:12.148Z,1008.89
2016-11-12T07:09:12.159Z,1008.88
2016-11-12T07:10:12.170Z,1008.91
2016-11-12T07:11:12.179Z,1008.91
2016-11-12T07:12:12.185Z,1008.92
2016-11-12T07:13:12.196Z,1008.86
2016-11-12T07:14:12.207Z,1008.92
2016-11-12T07:15:12.219Z,1008.93
2016-11-12T07:16:12.229Z,1008.99
2016-11-12T07:17:12.237Z,1008.99
2016-11-12T07:18:12.243Z,1009.07
2016-11-12T07:19:12.256Z,1009.06
2016-11-12T07:20:12.264Z,1009.09
2016-11-12T07:21:12.273Z,1009.14
2016-11-12T07:22:12.286Z,1009.08
2016-11-12T07:23:12.296Z,1009.1
2016-11-12T07:24:12.303Z,1009.09
2016-11-12T07:25:12.314Z,1009.08
2016-11-12T07:26:12.319Z,1009.07
2016-11-12T07:27:12.333Z,1009.06
2016-11-12T07:28:12.341Z,1009.1
2016-11-12T07:29:12.353Z,1009.1
2016-11-12T07:30:12.360Z,1009.08
2016-11-12T07:31:12.372Z,1009.07
2016-11-12T07:32:12.378Z,1009.07
2016-11-12T07:33:12.394Z,1009.08
2016-11-12T07:34:12.402Z,1009.11
2016-11-12T07:35:12.409Z,1009.09
2016-11-12T07:36:12.420Z,1009.08
2016-11-12T07:37:12.432Z,1009.09
2016-11-12T07:38:12.440Z,1009.08
2016-11-12T07:39:12.449Z,1009.07
2016-11-12T07:40:12.464Z,1009.05
2016-11-12T07:41:12.475Z,1009.06
2016-11-12T07:42:12.481Z,1009.07
2016-11-12T07:43:12.519Z,1009.05
2016-11-12T07:44:12.502Z,1009.04
2016-11-12T07:45:12.512Z,1008.98
2016-11-12T07:46:12.520Z,1009.04
2016-11-12T07:47:12.530Z,1009.01
2016-11-12T07:48:12.545Z,1009.01
2016-11-12T07:49:12.551Z,1009.05
2016-11-12T07:50:12.563Z,1009.07
2016-11-12T07:51:12.580Z,1009.09
2016-11-12T07:52:12.585Z,1009.11
2016-11-12T07:53:12.599Z,1009.08
2016-11-12T07:54:12.607Z,1009.09
2016-11-12T07:55:12.614Z,1009.09
2016-11-12T07:56:12.628Z,1009.13
2016-11-12T07:57:12.637Z,1009.09
2016-11-12T07:58:12.648Z,1009.11
2016-11-12T07:59:12.656Z,1009.04
2016-11-12T08:00:12.667Z,1009.02
2016-11-12T08:01:12.678Z,1009.03
2016-11-12T08:02:12.690Z,1008.99
2016-11-12T08:03:12.698Z,1009
2016-11-12T08:04:12.710Z,1009.01
2016-11-12T08:05:12.722Z,1009
2016-11-12T08:06:12.732Z,1009
2016-11-12T08:07:12.945Z,1009.02
2016-11-12T08:08:12.752Z,1008.99
2016-11-12T08:09:12.763Z,1008.99
2016-11-12T08:10:12.776Z,1008.99
2016-11-12T08:11:12.788Z,1008.97
2016-11-12T08:12:12.796Z,1008.96
2016-11-12T08:13:12.809Z,1008.97
2016-11-12T08:14:12.820Z,1008.97
2016-11-12T08:15:12.829Z,1009.01
2016-11-12T08:16:12.840Z,1009.01
2016-11-12T08:17:12.852Z,1009.06
2016-11-12T08:18:12.864Z,1009.01
2016-11-12T08:19:12.874Z,1009.1
2016-11-12T08:20:12.884Z,1009.06
2016-11-12T08:21:12.895Z,1009.03
2016-11-12T08:22:12.912Z,1009.09
2016-11-12T08:23:12.920Z,1009.1
2016-11-12T08:24:12.933Z,1009.1
2016-11-12T08:25:12.945Z,1009.1
2016-11-12T08:26:12.955Z,1009.08
2016-11-12T08:27:12.965Z,1009.1
2016-11-12T08:28:12.974Z,1009.1
2016-11-12T08:29:12.987Z,1009.06
2016-11-12T08:30:13.001Z,1009.09
2016-11-12T08:31:13.011Z,1009.07
2016-11-12T08:32:13.019Z,1009.15
2016-11-12T08:33:13.031Z,1009.12
2016-11-12T08:34:13.044Z,1009.12
2016-11-12T08:35:13.055Z,1009.12
2016-11-12T08:36:13.071Z,1009.08
2016-11-12T08:37:13.079Z,1009.1
2016-11-12T08:38:13.089Z,1009.07
2016-11-12T08:39:13.104Z,1009.07
2016-11-12T08:40:13.117Z,1009.02
2016-11-12T08:41:13.127Z,1009.08
2016-11-12T08:42:13.137Z,1009.05
2016-11-12T08:43:13.150Z,1009.06
2016-11-12T08:44:13.163Z,1009.05
2016-11-12T08:45:13.172Z,1009.06
2016-11-12T08:46:13.185Z,1009.1
2016-11-12T08:47:13.195Z,1009.12
2016-11-12T08:48:13.209Z,1009.14
2016-11-12T08:49:13.221Z,1009.15
2016-11-12T08:50:13.235Z,1009.15
2016-11-12T08:51:13.248Z,1009.18
2016-11-12T08:52:13.257Z,1009.17
2016-11-12T08:53:13.266Z,1009.21
2016-11-12T08:54:13.282Z,1009.2
2016-11-12T08:55:13.294Z,1009.18
2016-11-12T08:56:13.305Z,1009.16
2016-11-12T08:57:13.317Z,1009.15
2016-11-12T08:58:13.327Z,1009.14
2016-11-12T08:59:13.340Z,1009.08
2016-11-12T09:00:13.355Z,1009.11
2016-11-12T09:01:13.365Z,1009.03
2016-11-12T09:02:13.385Z,1009.05
2016-11-12T09:03:13.389Z,1009.09
2016-11-12T09:04:13.399Z,1009.08
2016-11-12T09:05:13.413Z,1009.05
2016-11-12T09:06:13.427Z,1009.07
2016-11-12T09:07:13.440Z,1009.04
2016-11-12T09:08:13.453Z,1009.01
2016-11-12T09:09:13.464Z,1008.97
2016-11-12T09:10:13.476Z,1009.03
2016-11-12T09:11:13.486Z,1008.99
2016-11-12T09:12:13.502Z,1009
2016-11-12T09:13:13.513Z,1008.99
2016-11-12T09:14:13.525Z,1009.02
2016-11-12T09:15:13.534Z,1009.01
2016-11-12T09:16:13.550Z,1009.02
2016-11-12T09:17:13.560Z,1009.01
2016-11-12T09:18:13.575Z,1009.02
2016-11-12T09:19:13.587Z,1009
2016-11-12T09:20:13.600Z,1008.97
2016-11-12T09:21:13.610Z,1009.08
2016-11-12T09:22:13.622Z,1009.01
2016-11-12T09:23:13.636Z,1009.01
2016-11-12T09:24:13.652Z,1009.03
2016-11-12T09:25:13.662Z,1009
2016-11-12T09:26:13.676Z,1009
2016-11-12T09:27:13.685Z,1009.06
2016-11-12T09:28:13.702Z,1009.03
2016-11-12T09:29:13.713Z,1009.03
2016-11-12T09:30:13.722Z,1009.06
2016-11-12T09:31:13.740Z,1009.04
2016-11-12T09:32:13.748Z,1009.07
2016-11-12T09:33:13.763Z,1009.05
2016-11-12T09:34:13.774Z,1009.03
2016-11-12T09:35:13.786Z,1009.04
2016-11-12T09:36:13.798Z,1009.03
2016-11-12T09:37:13.815Z,1009.01
2016-11-12T09:38:13.826Z,1008.99
2016-11-12T09:39:13.850Z,1008.97
2016-11-12T09:40:13.853Z,1008.96
2016-11-12T09:41:13.864Z,1009.03
2016-11-12T09:42:13.879Z,1008.99
2016-11-12T09:43:13.892Z,1008.97
2016-11-12T09:44:13.904Z,1008.99
2016-11-12T09:45:13.919Z,1008.98
2016-11-12T09:46:13.931Z,1009
2016-11-12T09:47:13.944Z,1008.95
2016-11-12T09:48:13.954Z,1008.85
2016-11-12T09:49:13.970Z,1008.9
2016-11-12T09:50:13.983Z,1008.86
2016-11-12T09:51:13.996Z,1008.8
2016-11-12T09:52:14.009Z,1008.84
2016-11-12T09:53:14.022Z,1008.92
2016-11-12T09:54:14.034Z,1008.84
2016-11-12T09:55:14.048Z,1008.91
2016-11-12T09:56:14.060Z,1008.82
2016-11-12T09:57:14.073Z,1008.84
2016-11-12T09:58:14.082Z,1008.9
2016-11-12T09:59:14.096Z,1008.87
2016-11-12T10:00:14.112Z,1008.9
2016-11-12T10:01:14.121Z,1008.88
2016-11-12T10:02:14.133Z,1008.85
2016-11-12T10:03:14.145Z,1008.85
2016-11-12T10:04:14.162Z,1008.79
2016-11-12T10:05:14.173Z,1008.82
2016-11-12T10:06:14.189Z,1008.82
2016-11-12T10:07:14.215Z,1008.84
2016-11-12T10:08:14.213Z,1008.78
2016-11-12T10:09:14.222Z,1008.78
2016-11-12T10:10:14.243Z,1008.72
2016-11-12T10:11:14.252Z,1008.71
2016-11-12T10:12:14.262Z,1008.78
2016-11-12T10:13:14.276Z,1008.76
2016-11-12T10:14:14.288Z,1008.68
2016-11-12T10:15:14.304Z,1008.7
2016-11-12T10:16:14.317Z,1008.63
2016-11-12T10:17:14.327Z,1008.59
2016-11-12T10:18:14.341Z,1008.62
2016-11-12T10:19:14.359Z,1008.66
2016-11-12T10:20:14.366Z,1008.62
2016-11-12T10:21:14.380Z,1008.56
2016-11-12T10:22:14.396Z,1008.57
2016-11-12T10:23:14.411Z,1008.56
2016-11-12T10:24:14.418Z,1008.55
2016-11-12T10:25:14.433Z,1008.47
2016-11-12T10:26:14.447Z,1008.52
2016-11-12T10:27:14.461Z,1008.51
2016-11-12T10:28:14.472Z,1008.56
2016-11-12T10:29:14.483Z,1008.52
2016-11-12T10:30:14.499Z,1008.56
2016-11-12T10:31:14.519Z,1008.57
2016-11-12T10:32:14.518Z,1008.52
2016-11-12T10:33:14.539Z,1008.54
2016-11-12T10:34:14.545Z,1008.57
2016-11-12T10:35:14.559Z,1008.51
2016-11-12T10:36:14.571Z,1008.58
2016-11-12T10:37:14.586Z,1008.56
2016-11-12T10:38:14.596Z,1008.56
2016-11-12T10:39:14.610Z,1008.52
2016-11-12T10:40:14.622Z,1008.53
2016-11-12T10:41:14.646Z,1008.51
2016-11-12T10:42:14.650Z,1008.47
2016-11-12T10:43:14.659Z,1008.54
2016-11-12T10:44:14.674Z,1008.52
2016-11-12T10:45:14.685Z,1008.53
2016-11-12T10:46:14.696Z,1008.46
2016-11-12T10:47:14.710Z,1008.47
2016-11-12T10:48:14.722Z,1008.5
2016-11-12T10:49:14.738Z,1008.52
2016-11-12T10:50:14.749Z,1008.48
2016-11-12T10:51:14.771Z,1008.46
2016-11-12T10:52:14.773Z,1008.46
2016-11-12T10:53:14.787Z,1008.47
2016-11-12T10:54:14.799Z,1008.46
2016-11-12T10:55:14.814Z,1008.46
2016-11-12T10:56:14.825Z,1008.46
2016-11-12T10:57:14.847Z,1008.5
2016-11-12T10:58:14.851Z,1008.43
2016-11-12T10:59:14.868Z,1008.5
2016-11-12T11:00:14.878Z,1008.37
2016-11-12T11:01:14.890Z,1008.41
2016-11-12T11:02:14.904Z,1008.46
2016-11-12T11:03:14.927Z,1008.45
2016-11-12T11:04:14.927Z,1008.46
2016-11-12T11:05:14.942Z,1008.46
2016-11-12T11:06:14.954Z,1008.45
2016-11-12T11:07:14.964Z,1008.46
2016-11-12T11:08:14.981Z,1008.46
2016-11-12T11:09:14.999Z,1008.42
2016-11-12T11:10:15.006Z,1008.44
2016-11-12T11:11:15.020Z,1008.43
2016-11-12T11:12:15.032Z,1008.4
2016-11-12T11:13:15.055Z,1008.41
2016-11-12T11:14:15.056Z,1008.4
2016-11-12T11:15:15.067Z,1008.34
2016-11-12T11:16:15.085Z,1008.33
2016-11-12T11:17:15.097Z,1008.29
2016-11-12T11:18:15.108Z,1008.28
2016-11-12T11:19:15.123Z,1008.24
2016-11-12T11:20:15.133Z,1008.27
2016-11-12T11:21:15.149Z,1008.26
2016-11-12T11:22:15.162Z,1008.23
2016-11-12T11:23:15.173Z,1008.22
2016-11-12T11:24:15.191Z,1008.2
2016-11-12T11:25:15.207Z,1008.24
2016-11-12T11:26:15.211Z,1008.23
2016-11-12T11:27:15.230Z,1008.22
2016-11-12T11:28:15.240Z,1008.19
2016-11-12T11:29:15.250Z,1008.25
2016-11-12T11:30:15.266Z,1008.19
2016-11-12T11:31:15.280Z,1008.18
2016-11-12T11:32:15.290Z,1008.2
2016-11-12T11:33:15.304Z,1008.18
2016-11-12T11:34:15.317Z,1008.19
2016-11-12T11:35:15.328Z,1008.2
2016-11-12T11:36:15.343Z,1008.2
2016-11-12T11:37:15.363Z,1008.18
2016-11-12T11:38:15.370Z,1008.15
2016-11-12T11:39:15.383Z,1008.15
2016-11-12T11:40:15.395Z,1008.17
2016-11-12T11:41:15.408Z,1008.16
2016-11-12T11:42:15.421Z,1008.22
2016-11-12T11:43:15.442Z,1008.2
2016-11-12T11:44:15.449Z,1008.23
2016-11-12T11:45:15.460Z,1008.17
2016-11-12T11:46:15.474Z,1008.23
2016-11-12T11:47:15.484Z,1008.29
2016-11-12T11:48:15.497Z,1008.23
2016-11-12T11:49:15.512Z,1008.23
2016-11-12T11:50:15.523Z,1008.2
2016-11-12T11:51:15.543Z,1008.22
2016-11-12T11:52:15.555Z,1008.18
2016-11-12T11:53:15.567Z,1008.18
2016-11-12T11:54:15.577Z,1008.23
2016-11-12T11:55:15.591Z,1008.24
2016-11-12T11:56:15.607Z,1008.21
2016-11-12T11:57:15.619Z,1008.25
2016-11-12T11:58:15.633Z,1008.19
2016-11-12T11:59:15.647Z,1008.22
2016-11-12T12:00:15.659Z,1008.22
2016-11-12T12:01:15.669Z,1008.2
2016-11-12T12:02:15.684Z,1008.27
2016-11-12T12:03:15.698Z,1008.17
2016-11-12T12:04:15.712Z,1008.22
2016-11-12T12:05:15.726Z,1008.22
2016-11-12T12:06:15.736Z,1008.22
2016-11-12T12:07:15.750Z,1008.22
2016-11-12T12:08:15.764Z,1008.28
2016-11-12T12:09:15.774Z,1008.2
2016-11-12T12:10:15.787Z,1008.21
2016-11-12T12:11:15.807Z,1008.26